Time;durP1;ratioP1;P1;durP2;ratioP2;P2;SDS_P1;SDS_P2;PMS_P1;PMS_P2;Temp;Humidity;BMP_temperature;BMP_pressure;BME280_temperature;BME280_humidity;BME280_pressure;Samples;Min_cycle;Max_cycle;Signal;HPM_P1;HPM_P2
2023/10/20 00:00:42;;;;;;;3.77;3.53;;;16.10;99.90;;;;;;4978086;28;20260;-74
2023/10/20 00:03:08;;;;;;;6.97;6.13;;;16.00;99.90;;;;;;4977753;28;20180;-75
2023/10/20 00:05:34;;;;;;;8.00;5.37;;;16.00;99.90;;;;;;4978199;28;20195;-75
2023/10/20 00:08:01;;;;;;;6.43;5.40;;;16.10;99.90;;;;;;4977963;28;20207;-75
2023/10/20 00:10:27;;;;;;;4.90;4.37;;;16.00;99.90;;;;;;4977850;28;20624;-75
2023/10/20 00:12:53;;;;;;;3.50;3.30;;;16.00;99.90;;;;;;4978113;28;20172;-74
2023/10/20 00:15:20;;;;;;;4.70;3.50;;;16.00;99.90;;;;;;4977948;28;20187;-74
2023/10/20 00:17:46;;;;;;;4.13;3.90;;;16.00;99.90;;;;;;4976629;28;20179;-74
2023/10/20 00:20:12;;;;;;;5.47;4.30;;;16.10;99.90;;;;;;4977749;28;20179;-74
2023/10/20 00:22:38;;;;;;;3.63;3.37;;;16.00;99.90;;;;;;4977410;28;20255;-75
2023/10/20 00:25:04;;;;;;;4.27;3.60;;;16.00;99.90;;;;;;4976525;28;20310;-73
2023/10/20 00:27:30;;;;;;;3.43;3.20;;;16.00;99.90;;;;;;4977662;28;20218;-74
2023/10/20 00:29:55;;;;;;;3.70;3.40;;;16.00;99.90;;;;;;4977267;28;20184;-74
2023/10/20 00:32:21;;;;;;;4.73;4.30;;;16.00;99.90;;;;;;4977546;28;20275;-75
2023/10/20 00:34:47;;;;;;;4.47;4.07;;;16.00;99.90;;;;;;4977692;28;20240;-75
2023/10/20 00:37:12;;;;;;;7.07;6.33;;;16.00;99.90;;;;;;4977533;28;20180;-75
2023/10/20 00:39:38;;;;;;;9.37;6.43;;;16.00;99.90;;;;;;4977532;28;20176;-75
2023/10/20 00:42:03;;;;;;;4.80;4.40;;;16.10;99.90;;;;;;4977475;28;20215;-74
2023/10/20 00:44:29;;;;;;;5.23;3.53;;;16.10;99.90;;;;;;4977031;28;20224;-74
2023/10/20 00:46:55;;;;;;;3.37;3.07;;;16.00;99.90;;;;;;4977202;28;20191;-75
2023/10/20 00:49:22;;;;;;;3.57;3.00;;;16.00;99.90;;;;;;4977330;28;20210;-75
2023/10/20 00:51:47;;;;;;;4.07;3.00;;;16.00;99.90;;;;;;4977269;28;20172;-75
2023/10/20 00:54:15;;;;;;;3.77;3.00;;;16.10;99.90;;;;;;4977242;28;20202;-75
2023/10/20 00:56:45;;;;;;;3.53;3.33;;;16.10;99.90;;;;;;4977026;28;20187;-75
2023/10/20 00:59:11;;;;;;;4.53;3.47;;;16.10;99.90;;;;;;4976793;28;20200;-75
2023/10/20 01:01:38;;;;;;;5.50;3.60;;;16.10;99.90;;;;;;4977238;28;20172;-75
2023/10/20 01:04:05;;;;;;;2.80;2.60;;;16.10;99.90;;;;;;4976882;28;20219;-75
2023/10/20 01:06:31;;;;;;;3.43;3.13;;;16.10;99.90;;;;;;4977148;28;20183;-74
2023/10/20 01:08:58;;;;;;;4.50;3.30;;;16.10;99.90;;;;;;4976041;28;20248;-75
2023/10/20 01:11:24;;;;;;;3.33;3.13;;;16.20;99.90;;;;;;4977006;28;20268;-75
2023/10/20 01:13:50;;;;;;;3.17;2.87;;;16.20;99.90;;;;;;4976642;28;20165;-74
2023/10/20 01:16:16;;;;;;;2.90;2.70;;;16.20;99.90;;;;;;4976982;28;20176;-74
2023/10/20 01:18:43;;;;;;;4.00;3.67;;;16.10;99.90;;;;;;4976723;28;20307;-75
2023/10/20 01:21:08;;;;;;;3.00;2.80;;;16.10;99.90;;;;;;4976698;28;20183;-75
2023/10/20 01:23:34;;;;;;;3.20;2.90;;;16.10;99.90;;;;;;4976384;28;20242;-74
2023/10/20 01:26:00;;;;;;;2.90;2.70;;;16.10;99.90;;;;;;4976533;28;20629;-74
2023/10/20 01:28:25;;;;;;;3.30;3.00;;;16.10;99.90;;;;;;4976131;28;20239;-74
2023/10/20 01:30:51;;;;;;;4.30;3.60;;;16.10;99.90;;;;;;4976354;28;20251;-74
2023/10/20 01:33:17;;;;;;;3.70;3.40;;;16.00;99.90;;;;;;4976240;28;20636;-73
2023/10/20 01:35:42;;;;;;;3.63;3.20;;;16.00;99.90;;;;;;4976437;28;20675;-74
2023/10/20 01:38:08;;;;;;;3.37;3.07;;;16.00;99.90;;;;;;4976469;28;20258;-74
2023/10/20 01:40:33;;;;;;;3.87;3.57;;;15.90;99.90;;;;;;4976353;28;20207;-74
2023/10/20 01:42:59;;;;;;;3.30;3.03;;;15.90;99.90;;;;;;4976031;28;20180;-74
2023/10/20 01:45:25;;;;;;;3.80;3.47;;;15.90;99.90;;;;;;4976168;28;20243;-75
2023/10/20 01:47:50;;;;;;;6.43;4.37;;;15.90;99.90;;;;;;4976187;28;20691;-75
2023/10/20 01:50:16;;;;;;;4.27;3.90;;;15.90;99.90;;;;;;4975946;28;20275;-75
2023/10/20 01:52:42;;;;;;;4.33;4.00;;;15.90;99.90;;;;;;4975903;28;20456;-74
2023/10/20 01:55:08;;;;;;;4.57;4.17;;;15.90;99.90;;;;;;4975909;28;20255;-75
2023/10/20 01:57:34;;;;;;;7.00;6.33;;;15.80;99.90;;;;;;4976048;28;20271;-75
2023/10/20 02:00:01;;;;;;;8.60;7.73;;;15.80;99.90;;;;;;4975540;28;20183;-75
2023/10/20 02:02:27;;;;;;;6.40;5.33;;;15.80;99.90;;;;;;4975617;28;20180;-74
2023/10/20 02:04:52;;;;;;;5.23;4.73;;;15.80;99.90;;;;;;4975526;28;20226;-74
2023/10/20 02:07:18;;;;;;;4.87;4.40;;;15.70;99.90;;;;;;4974406;28;20217;-74
2023/10/20 02:09:44;;;;;;;5.70;5.00;;;15.70;99.90;;;;;;4975501;28;20266;-74
2023/10/20 02:12:10;;;;;;;5.20;4.33;;;15.60;99.90;;;;;;4975110;28;20172;-73
2023/10/20 02:14:36;;;;;;;4.77;4.23;;;15.70;99.90;;;;;;4974202;28;20591;-74
2023/10/20 02:17:02;;;;;;;4.90;4.53;;;15.60;99.90;;;;;;4975296;28;20172;-75
2023/10/20 02:19:27;;;;;;;5.30;4.80;;;15.60;99.90;;;;;;4975175;28;20174;-74
2023/10/20 02:21:53;;;;;;;5.03;4.70;;;15.60;99.90;;;;;;4975092;28;20680;-73
2023/10/20 02:24:19;;;;;;;5.23;4.83;;;15.60;99.90;;;;;;4975253;28;20211;-73
2023/10/20 02:26:45;;;;;;;5.53;4.60;;;15.60;99.90;;;;;;4973669;28;20176;-73
2023/10/20 02:29:11;;;;;;;5.60;5.10;;;15.50;99.90;;;;;;4975101;28;20187;-74
2023/10/20 02:31:37;;;;;;;6.00;5.50;;;15.50;99.90;;;;;;4975037;28;20700;-74
2023/10/20 02:34:03;;;;;;;5.77;5.37;;;15.50;99.90;;;;;;4975046;28;20180;-74
2023/10/20 02:36:30;;;;;;;6.00;5.60;;;15.60;99.90;;;;;;4975068;28;20176;-75
2023/10/20 02:38:55;;;;;;;6.20;5.80;;;15.50;99.90;;;;;;4975087;28;20211;-73
2023/10/20 02:41:21;;;;;;;6.83;6.23;;;15.50;99.90;;;;;;4974408;28;20211;-75
2023/10/20 02:43:47;;;;;;;6.87;6.27;;;15.50;99.90;;;;;;4974754;28;20207;-74
2023/10/20 02:46:13;;;;;;;6.13;5.70;;;15.50;99.90;;;;;;4974783;28;20254;-74
2023/10/20 02:48:39;;;;;;;7.10;6.50;;;15.50;99.90;;;;;;4974817;28;20168;-75
2023/10/20 02:51:15;;;;;;;7.20;6.50;;;15.50;99.90;;;;;;4974588;28;20168;-73
2023/10/20 02:53:41;;;;;;;7.20;6.57;;;15.50;99.90;;;;;;4974828;28;20179;-74
2023/10/20 02:56:14;;;;;;;6.63;6.00;;;15.50;99.90;;;;;;4974326;28;20176;-74
2023/10/20 02:58:43;;;;;;;7.37;6.70;;;15.50;99.90;;;;;;4974421;28;20200;-75
2023/10/20 03:01:09;;;;;;;7.60;7.00;;;15.50;99.90;;;;;;4974568;28;20187;-74
2023/10/20 03:03:38;;;;;;;8.17;7.37;;;15.60;99.90;;;;;;4974552;28;20243;-74
2023/10/20 03:06:04;;;;;;;9.03;8.37;;;15.50;99.90;;;;;;4974430;28;20253;-74
2023/10/20 03:08:30;;;;;;;8.37;7.63;;;15.50;99.90;;;;;;4974821;28;20210;-74
2023/10/20 03:10:59;;;;;;;7.93;7.23;;;15.60;99.90;;;;;;4974120;28;20228;-74
2023/10/20 03:13:26;;;;;;;8.60;7.70;;;15.50;99.90;;;;;;4974453;28;20206;-73
2023/10/20 03:15:52;;;;;;;7.90;7.20;;;15.50;99.90;;;;;;4974502;28;20234;-73
2023/10/20 03:18:19;;;;;;;8.80;8.00;;;15.60;99.90;;;;;;4974293;28;20173;-74
2023/10/20 03:20:46;;;;;;;9.03;8.33;;;15.50;99.90;;;;;;4974155;28;20196;-73
2023/10/20 03:23:16;;;;;;;9.43;8.53;;;15.50;99.90;;;;;;4974098;28;20236;-73
2023/10/20 03:25:42;;;;;;;9.10;8.27;;;15.50;99.90;;;;;;4973792;28;20179;-74
2023/10/20 03:28:08;;;;;;;9.70;8.80;;;15.50;99.90;;;;;;4974435;28;20179;-74
2023/10/20 03:30:44;;;;;;;9.53;8.63;;;15.50;99.90;;;;;;4973679;28;20168;-74
2023/10/20 03:33:13;;;;;;;9.77;8.27;;;15.50;99.90;;;;;;4974171;28;20168;-74
2023/10/20 03:35:39;;;;;;;10.40;9.40;;;15.50;99.90;;;;;;4972634;28;20231;-74
2023/10/20 03:38:06;;;;;;;10.67;9.53;;;15.50;99.90;;;;;;4972909;28;20175;-74
2023/10/20 03:40:36;;;;;;;10.47;9.57;;;15.50;99.90;;;;;;4973377;28;20172;-74
2023/10/20 03:43:05;;;;;;;10.67;9.67;;;15.60;99.90;;;;;;4973994;28;20168;-74
2023/10/20 03:45:40;;;;;;;10.83;9.87;;;15.60;99.90;;;;;;4974179;28;20254;-74
2023/10/20 03:48:08;;;;;;;10.93;9.90;;;15.50;99.90;;;;;;4973951;28;20171;-75
2023/10/20 03:50:36;;;;;;;11.67;10.50;;;15.60;99.90;;;;;;4973711;28;20191;-74
2023/10/20 03:53:02;;;;;;;10.13;9.23;;;15.60;99.90;;;;;;4973660;28;20175;-72
2023/10/20 03:55:29;;;;;;;10.23;9.33;;;15.60;99.90;;;;;;4973879;28;20180;-75
2023/10/20 03:57:55;;;;;;;10.03;9.23;;;15.50;99.90;;;;;;4973597;28;20204;-75
2023/10/20 04:00:22;;;;;;;11.13;10.07;;;15.60;99.90;;;;;;4974071;28;20706;-74
2023/10/20 04:02:48;;;;;;;11.50;10.50;;;15.60;99.90;;;;;;4973719;28;20309;-74
2023/10/20 04:05:16;;;;;;;10.40;9.47;;;15.50;99.90;;;;;;4972182;28;20256;-74
2023/10/20 04:07:41;;;;;;;10.87;10.00;;;15.50;99.90;;;;;;4973472;28;20176;-73
2023/10/20 04:10:07;;;;;;;10.70;9.70;;;15.50;99.90;;;;;;4973511;28;20175;-73
2023/10/20 04:12:33;;;;;;;11.07;10.07;;;15.50;99.90;;;;;;4973704;28;20310;-74
2023/10/20 04:14:59;;;;;;;11.13;10.17;;;15.40;99.90;;;;;;4973651;28;20259;-75
2023/10/20 04:17:25;;;;;;;11.20;10.23;;;15.50;99.90;;;;;;4973265;28;20184;-74
2023/10/20 04:19:50;;;;;;;12.00;10.80;;;15.40;99.90;;;;;;4973707;28;20323;-73
2023/10/20 04:22:16;;;;;;;11.80;10.80;;;15.40;99.90;;;;;;4973011;28;20246;-75
2023/10/20 04:24:44;;;;;;;12.87;11.10;;;15.40;99.90;;;;;;4973673;28;20687;-75
2023/10/20 04:27:21;;;;;;;12.53;11.43;;;15.50;99.90;;;;;;4973245;28;20624;-74
2023/10/20 04:41:51;;;;;;;12.53;11.23;;;15.40;99.90;;;;;;4973763;28;20184;-75
2023/10/20 04:43:42;;;;;;;12.73;11.43;;;15.40;99.90;;;;;;4974789;28;20268;-74
2023/10/20 04:49:15;;;;;;;12.07;10.97;;;15.40;99.90;;;;;;4976748;28;20211;-74
2023/10/20 04:54:07;;;;;;;12.20;10.93;;;15.40;99.90;;;;;;4976628;28;20207;-74
2023/10/20 04:56:37;;;;;;;12.43;10.70;;;15.40;99.90;;;;;;4976844;28;20189;-74
2023/10/20 04:59:09;;;;;;;13.17;11.50;;;15.40;99.90;;;;;;4975942;28;20204;-75
2023/10/20 05:01:43;;;;;;;11.97;11.00;;;15.40;99.90;;;;;;4976432;28;20164;-74
2023/10/20 05:07:05;;;;;;;12.03;10.93;;;15.40;99.90;;;;;;4975994;28;20226;-74
2023/10/20 05:09:33;;;;;;;11.77;10.77;;;15.40;99.90;;;;;;4975713;28;20793;-73
2023/10/20 05:11:59;;;;;;;12.87;11.60;;;15.40;99.90;;;;;;4975757;28;20168;-75
2023/10/20 05:14:25;;;;;;;12.70;11.57;;;15.40;99.90;;;;;;4976186;28;20255;-73
2023/10/20 05:16:51;;;;;;;12.37;11.27;;;15.40;99.90;;;;;;4975634;28;20474;-74
2023/10/20 05:19:17;;;;;;;16.43;12.70;;;15.40;99.90;;;;;;4975731;28;20266;-73
2023/10/20 05:21:43;;;;;;;13.17;11.97;;;15.40;99.90;;;;;;4975179;28;20613;-74
2023/10/20 05:24:09;;;;;;;13.40;12.17;;;15.40;99.90;;;;;;4975163;28;20235;-75
2023/10/20 05:26:35;;;;;;;13.40;12.20;;;15.40;99.90;;;;;;4975623;28;20191;-74
2023/10/20 05:29:01;;;;;;;12.80;11.70;;;15.40;99.90;;;;;;4975544;28;20172;-75
2023/10/20 05:31:29;;;;;;;13.53;12.23;;;15.40;99.90;;;;;;4975194;28;20175;-73
2023/10/20 05:33:55;;;;;;;12.43;11.33;;;15.40;99.90;;;;;;4975440;28;20354;-74
2023/10/20 05:36:21;;;;;;;12.30;11.20;;;15.40;99.90;;;;;;4975331;28;20691;-74
2023/10/20 05:38:47;;;;;;;11.20;10.30;;;15.40;99.90;;;;;;4974845;28;20306;-73
2023/10/20 05:41:12;;;;;;;12.87;11.77;;;15.40;99.90;;;;;;4975025;28;20275;-73
2023/10/20 05:43:38;;;;;;;11.47;10.57;;;15.40;99.90;;;;;;4974887;28;20605;-74
2023/10/20 05:46:04;;;;;;;12.40;11.30;;;15.40;99.90;;;;;;4975388;28;20243;-73
2023/10/20 05:48:31;;;;;;;11.67;10.67;;;15.40;99.90;;;;;;4975458;28;20259;-74
2023/10/20 05:50:58;;;;;;;12.57;11.50;;;15.40;99.90;;;;;;4974041;28;20645;-74
2023/10/20 05:53:26;;;;;;;12.50;11.40;;;15.40;99.90;;;;;;4974986;28;20176;-73
2023/10/20 05:55:52;;;;;;;12.03;11.03;;;15.40;99.90;;;;;;4973969;28;20631;-74
2023/10/20 05:58:18;;;;;;;11.70;10.60;;;15.40;99.90;;;;;;4974556;28;20234;-73
2023/10/20 06:00:44;;;;;;;11.10;10.17;;;15.40;99.90;;;;;;4973982;28;20224;-72
2023/10/20 06:03:10;;;;;;;10.73;9.83;;;15.40;99.90;;;;;;4974751;28;20535;-71
2023/10/20 06:05:35;;;;;;;10.90;9.90;;;15.40;99.90;;;;;;4973961;28;20754;-72
2023/10/20 06:08:01;;;;;;;11.17;10.17;;;15.40;99.90;;;;;;4974666;28;20172;-73
2023/10/20 06:10:27;;;;;;;11.07;10.17;;;15.40;99.90;;;;;;4972816;28;20199;-73
2023/10/20 06:12:54;;;;;;;10.93;10.10;;;15.50;99.90;;;;;;4974436;28;20248;-73
2023/10/20 06:15:20;;;;;;;10.73;9.70;;;15.50;99.90;;;;;;4974709;28;20183;-74
2023/10/20 06:17:47;;;;;;;11.10;10.10;;;15.40;99.90;;;;;;4974542;28;20659;-72
2023/10/20 06:20:14;;;;;;;10.73;9.83;;;15.50;99.90;;;;;;4973924;28;20168;-72
2023/10/20 06:22:41;;;;;;;10.17;9.30;;;15.50;99.90;;;;;;4973649;28;20212;-72
2023/10/20 06:25:12;;;;;;;9.47;8.77;;;15.40;99.90;;;;;;4973553;28;20244;-73
2023/10/20 06:27:39;;;;;;;10.67;9.83;;;15.40;99.90;;;;;;4974461;28;20564;-73
2023/10/20 06:30:14;;;;;;;10.73;9.83;;;15.40;99.90;;;;;;4973934;28;20190;-73
2023/10/20 06:32:42;;;;;;;9.87;9.10;;;15.50;99.90;;;;;;4972140;28;20585;-73
2023/10/20 06:35:09;;;;;;;10.80;9.73;;;15.50;99.90;;;;;;4974424;28;20176;-74
2023/10/20 06:37:46;;;;;;;10.47;9.57;;;15.40;99.90;;;;;;4974017;28;20278;-73
2023/10/20 06:40:15;;;;;;;10.30;9.50;;;15.40;99.90;;;;;;4974958;28;20182;-73
2023/10/20 06:42:45;;;;;;;10.00;9.20;;;15.50;99.90;;;;;;4973409;28;20452;-74
2023/10/20 06:45:11;;;;;;;10.30;9.40;;;15.50;99.90;;;;;;4973445;28;20639;-72
2023/10/20 06:47:39;;;;;;;9.30;8.50;;;15.40;99.90;;;;;;4973941;28;20643;-74
2023/10/20 06:50:10;;;;;;;12.00;10.67;;;15.50;99.90;;;;;;4973425;28;20184;-74
2023/10/20 06:52:36;;;;;;;10.80;9.90;;;15.50;99.90;;;;;;4973580;28;20179;-75
2023/10/20 06:55:03;;;;;;;10.43;9.53;;;15.50;99.90;;;;;;4973722;28;20180;-73
2023/10/20 06:57:29;;;;;;;10.87;9.93;;;15.50;99.90;;;;;;4973689;28;20325;-74
2023/10/20 06:59:54;;;;;;;10.37;9.57;;;15.60;99.90;;;;;;4973705;28;20207;-73
2023/10/20 07:02:20;;;;;;;10.60;9.80;;;15.60;99.90;;;;;;4973315;28;20184;-74
2023/10/20 07:04:46;;;;;;;9.20;8.50;;;15.60;99.90;;;;;;4973282;28;20222;-73
2023/10/20 07:07:15;;;;;;;10.13;9.33;;;15.60;99.90;;;;;;4973204;28;20176;-73
2023/10/20 07:09:41;;;;;;;9.90;9.00;;;15.60;99.90;;;;;;4973663;28;20168;-74
2023/10/20 07:12:07;;;;;;;10.60;9.50;;;15.60;99.90;;;;;;4972706;28;20640;-73
2023/10/20 07:14:38;;;;;;;9.13;8.43;;;15.60;99.90;;;;;;4973586;28;20218;-74
2023/10/20 07:17:06;;;;;;;9.50;8.80;;;15.60;99.90;;;;;;4973621;28;20187;-72
2023/10/20 07:19:33;;;;;;;9.43;8.63;;;15.60;99.90;;;;;;4973734;28;20187;-74
2023/10/20 07:22:00;;;;;;;9.67;8.87;;;15.70;99.90;;;;;;4973179;28;20184;-73
2023/10/20 07:24:26;;;;;;;9.37;8.57;;;15.70;99.90;;;;;;4972458;28;20222;-72
2023/10/20 07:26:54;;;;;;;10.40;8.60;;;15.70;99.90;;;;;;4973802;28;20227;-73
2023/10/20 07:29:20;;;;;;;7.77;7.27;;;15.70;99.90;;;;;;4973776;28;20194;-73
2023/10/20 07:31:47;;;;;;;9.20;8.43;;;15.70;99.90;;;;;;4973124;28;20180;-73
2023/10/20 07:34:13;;;;;;;8.20;7.60;;;15.80;99.90;;;;;;4973817;28;20168;-73
2023/10/20 07:36:39;;;;;;;8.30;7.70;;;15.80;99.90;;;;;;4973765;28;20168;-74
2023/10/20 07:39:08;;;;;;;7.83;7.23;;;15.80;99.90;;;;;;4973881;28;20178;-74
2023/10/20 07:41:35;;;;;;;8.37;7.67;;;15.80;99.90;;;;;;4973713;28;20282;-74
2023/10/20 07:44:02;;;;;;;7.50;6.97;;;15.80;99.90;;;;;;4973372;28;20211;-74
2023/10/20 07:46:27;;;;;;;7.67;7.07;;;15.90;99.90;;;;;;4973290;28;20621;-73
2023/10/20 07:48:53;;;;;;;7.67;7.17;;;15.90;99.90;;;;;;4973304;28;20173;-73
2023/10/20 07:51:19;;;;;;;7.20;6.60;;;15.90;99.90;;;;;;4973436;28;20176;-74
2023/10/20 07:53:45;;;;;;;7.80;7.20;;;15.90;99.90;;;;;;4973336;28;20700;-75
2023/10/20 07:56:11;;;;;;;7.90;7.30;;;15.90;99.90;;;;;;4973465;28;20200;-73
2023/10/20 07:58:36;;;;;;;7.63;7.13;;;15.90;99.90;;;;;;4972529;28;20683;-73
2023/10/20 08:01:02;;;;;;;8.10;7.43;;;15.90;99.90;;;;;;4973321;28;20195;-73
2023/10/20 08:03:28;;;;;;;9.13;6.90;;;15.90;99.90;;;;;;4973660;28;20176;-74
2023/10/20 08:05:54;;;;;;;7.40;6.80;;;15.80;99.90;;;;;;4973471;28;20703;-74
2023/10/20 08:08:19;;;;;;;7.83;7.00;;;15.90;99.90;;;;;;4972999;28;20175;-74
2023/10/20 08:10:45;;;;;;;7.63;7.03;;;15.90;99.90;;;;;;4973221;28;20254;-73
2023/10/20 08:13:11;;;;;;;7.83;7.23;;;15.90;99.90;;;;;;4973351;28;20258;-74
2023/10/20 08:15:38;;;;;;;7.63;6.87;;;15.90;99.90;;;;;;4973269;28;20175;-74
2023/10/20 08:18:05;;;;;;;7.63;7.07;;;15.90;99.90;;;;;;4976288;28;20188;-74
2023/10/20 08:20:30;;;;;;;7.10;6.50;;;15.90;99.90;;;;;;4976891;28;20211;-74
2023/10/20 08:22:56;;;;;;;7.20;6.33;;;15.90;99.90;;;;;;4976564;28;20255;-73
2023/10/20 08:25:22;;;;;;;6.20;5.80;;;15.90;99.90;;;;;;4975916;28;20220;-73
2023/10/20 08:27:48;;;;;;;6.33;5.93;;;16.00;99.90;;;;;;4977020;28;20176;-73
2023/10/20 08:30:15;;;;;;;6.20;5.77;;;16.00;99.90;;;;;;4976766;28;20204;-73
2023/10/20 08:32:42;;;;;;;6.40;5.80;;;16.00;99.90;;;;;;4976925;28;20723;-73
2023/10/20 08:35:08;;;;;;;6.60;6.07;;;15.90;99.90;;;;;;4977105;28;20572;-73
2023/10/20 08:37:34;;;;;;;6.03;5.50;;;16.00;99.90;;;;;;4976892;28;20640;-73
2023/10/20 08:40:00;;;;;;;5.33;5.00;;;16.00;99.90;;;;;;4976568;28;20182;-73
2023/10/20 08:42:26;;;;;;;6.00;5.37;;;16.00;99.90;;;;;;4975811;28;20255;-73
2023/10/20 08:44:51;;;;;;;5.50;5.13;;;16.00;99.90;;;;;;4976030;28;20251;-75
2023/10/20 08:47:19;;;;;;;5.67;5.20;;;16.00;99.90;;;;;;4976670;28;20632;-74
2023/10/20 08:49:46;;;;;;;5.17;4.87;;;16.00;99.90;;;;;;4976599;28;20194;-74
2023/10/20 08:52:12;;;;;;;5.97;5.57;;;16.00;99.90;;;;;;4976497;28;20184;-73
2023/10/20 08:54:38;;;;;;;5.97;5.40;;;16.10;99.90;;;;;;4976406;28;20180;-74
2023/10/20 08:57:05;;;;;;;5.50;5.10;;;16.10;99.90;;;;;;4976273;28;20168;-74
2023/10/20 08:59:35;;;;;;;7.47;5.60;;;16.10;99.90;;;;;;4976110;28;20184;-74
2023/10/20 09:02:01;;;;;;;5.67;5.27;;;16.20;99.90;;;;;;4976288;28;20561;-75
2023/10/20 09:04:28;;;;;;;5.70;5.27;;;16.20;99.90;;;;;;4976326;28;20196;-74
2023/10/20 09:06:54;;;;;;;5.23;4.90;;;16.20;99.90;;;;;;4975618;28;20175;-74
2023/10/20 09:09:20;;;;;;;6.00;5.40;;;16.20;99.90;;;;;;4976020;28;20182;-74
2023/10/20 09:11:47;;;;;;;5.10;4.70;;;16.20;99.90;;;;;;4976281;28;20545;-75
2023/10/20 09:14:14;;;;;;;5.67;5.27;;;16.20;99.90;;;;;;4974277;28;20180;-73
2023/10/20 09:16:40;;;;;;;6.50;5.97;;;16.20;99.90;;;;;;4976204;28;20184;-74
2023/10/20 09:19:09;;;;;;;5.73;5.33;;;16.20;99.90;;;;;;4975754;28;20180;-74
2023/10/20 09:21:39;;;;;;;6.50;5.97;;;16.20;99.90;;;;;;4976220;28;20203;-74
2023/10/20 09:24:07;;;;;;;8.00;6.13;;;16.20;99.90;;;;;;4975553;28;20235;-74
2023/10/20 09:26:38;;;;;;;6.17;5.70;;;16.30;99.90;;;;;;4976052;28;20184;-73
2023/10/20 09:29:07;;;;;;;4.93;4.63;;;16.30;99.90;;;;;;4975848;28;20230;-74
2023/10/20 09:31:34;;;;;;;5.00;4.60;;;16.30;99.90;;;;;;4974379;28;20219;-74
2023/10/20 09:34:00;;;;;;;5.60;4.60;;;16.30;99.90;;;;;;4975665;28;20518;-74
2023/10/20 09:36:30;;;;;;;6.07;4.40;;;16.40;99.90;;;;;;4975548;28;20283;-74
2023/10/20 09:38:57;;;;;;;3.80;3.40;;;16.50;99.90;;;;;;4975537;28;20666;-73
2023/10/20 09:41:29;;;;;;;5.20;3.17;;;16.50;99.90;;;;;;4975255;28;20176;-74
2023/10/20 09:44:08;;;;;;;3.17;2.90;;;16.50;99.90;;;;;;4975669;28;20208;-73
2023/10/20 09:47:01;;;;;;;4.37;2.63;;;16.50;99.90;;;;;;4975570;28;20171;-74
2023/10/20 09:49:28;;;;;;;3.10;2.90;;;16.60;99.90;;;;;;4975539;28;20188;-74
2023/10/20 09:51:56;;;;;;;2.57;2.37;;;16.70;99.90;;;;;;4975658;28;20243;-74
2023/10/20 09:54:24;;;;;;;3.70;2.17;;;16.70;99.90;;;;;;4975396;28;20214;-74
2023/10/20 09:56:51;;;;;;;2.40;2.07;;;16.70;99.90;;;;;;4974949;28;20199;-74
2023/10/20 09:59:18;;;;;;;2.23;2.13;;;16.80;99.90;;;;;;4975226;28;20270;-75
2023/10/20 10:01:45;;;;;;;5.35;2.53;;;16.80;99.90;;;;;;4974683;28;20260;-74
2023/10/20 10:04:11;;;;;;;1.50;1.40;;;16.90;99.90;;;;;;4975204;28;20295;-74
2023/10/20 10:06:37;;;;;;;1.83;1.73;;;16.80;99.90;;;;;;4975493;28;20510;-73
2023/10/20 10:09:04;;;;;;;2.77;1.40;;;16.80;99.90;;;;;;4973489;28;20176;-76
2023/10/20 10:11:38;;;;;;;1.08;0.98;;;16.80;99.90;;;;;;4974774;28;20164;-75
2023/10/20 10:14:04;;;;;;;1.43;1.20;;;16.70;99.90;;;;;;4974021;28;20175;-73
2023/10/20 10:16:30;;;;;;;1.80;1.70;;;16.60;99.90;;;;;;4975247;28;20180;-74
2023/10/20 10:19:09;;;;;;;1.60;1.50;;;16.60;99.90;;;;;;4974707;28;20238;-74
2023/10/20 10:21:39;;;;;;;1.97;1.83;;;16.50;99.90;;;;;;4975007;28;20171;-73
2023/10/20 10:24:17;;;;;;;2.00;1.90;;;16.50;99.90;;;;;;4974478;28;20329;-76
2023/10/20 10:26:45;;;;;;;2.80;2.27;;;16.40;99.90;;;;;;4974358;28;20198;-75
2023/10/20 10:29:11;;;;;;;3.80;2.45;;;16.50;99.90;;;;;;4974722;28;20168;-75
2023/10/20 10:31:36;;;;;;;3.00;2.80;;;16.50;99.90;;;;;;4974671;28;20183;-75
2023/10/20 10:34:06;;;;;;;3.73;2.90;;;16.40;99.90;;;;;;4974915;28;20180;-75
2023/10/20 10:36:47;;;;;;;3.13;2.88;;;16.40;99.90;;;;;;4974581;28;20659;-75
2023/10/20 10:39:29;;;;;;;3.30;3.00;;;16.40;99.90;;;;;;4973766;28;20244;-75
2023/10/20 10:42:01;;;;;;;3.00;2.80;;;16.40;99.90;;;;;;4973476;28;20270;-77
2023/10/20 10:44:37;;;;;;;3.53;3.27;;;16.40;99.90;;;;;;4974494;28;20250;-75
2023/10/20 10:47:04;;;;;;;3.23;2.93;;;16.40;99.90;;;;;;4974628;28;20182;-75
2023/10/20 10:49:33;;;;;;;3.40;3.10;;;16.20;99.90;;;;;;4974311;28;20259;-76
2023/10/20 10:52:07;;;;;;;3.30;3.00;;;16.20;99.90;;;;;;4973851;28;20240;-75
2023/10/20 10:54:33;;;;;;;2.50;2.40;;;16.20;99.90;;;;;;4973799;28;20164;-74
2023/10/20 10:57:03;;;;;;;3.40;3.10;;;16.20;99.90;;;;;;4974257;28;20183;-74
2023/10/20 10:59:30;;;;;;;3.80;2.90;;;16.10;99.90;;;;;;4974321;28;20190;-76
2023/10/20 11:01:56;;;;;;;3.67;3.37;;;16.00;99.90;;;;;;4973684;28;20185;-78
2023/10/20 11:04:23;;;;;;;4.67;3.50;;;16.00;99.90;;;;;;4974962;28;20294;-75
2023/10/20 11:06:49;;;;;;;6.13;3.87;;;16.00;99.90;;;;;;4974494;28;20176;-76
2023/10/20 11:09:19;;;;;;;6.50;4.23;;;16.00;99.90;;;;;;4973263;28;20665;-76
2023/10/20 11:11:51;;;;;;;5.00;4.60;;;16.00;99.90;;;;;;4973580;28;20588;-75
2023/10/20 11:14:18;;;;;;;5.50;5.07;;;15.90;99.90;;;;;;4974046;28;20527;-75
2023/10/20 11:16:45;;;;;;;9.23;5.43;;;15.80;99.90;;;;;;4973587;28;20187;-76
2023/10/20 11:19:14;;;;;;;6.93;5.80;;;15.80;99.90;;;;;;4972104;28;20214;-75
2023/10/20 11:21:50;;;;;;;6.67;5.97;;;15.70;99.90;;;;;;4975093;28;20184;-75
2023/10/20 11:24:34;;;;;;;6.03;5.53;;;15.70;99.90;;;;;;4973110;28;20620;-75
2023/10/20 11:27:10;;;;;;;6.60;6.00;;;15.70;99.90;;;;;;4974105;28;20179;-74
2023/10/20 11:29:36;;;;;;;6.17;5.57;;;15.70;99.90;;;;;;4974387;28;20172;-75
2023/10/20 11:32:07;;;;;;;6.23;5.73;;;15.60;99.90;;;;;;4973320;28;20675;-76
2023/10/20 11:34:33;;;;;;;6.07;5.37;;;15.70;99.90;;;;;;4972070;28;20211;-76
2023/10/20 11:37:00;;;;;;;6.30;5.70;;;15.70;99.90;;;;;;4973382;28;20175;-77
2023/10/20 11:39:27;;;;;;;6.13;5.60;;;15.70;99.90;;;;;;4973625;28;20184;-76
2023/10/20 11:41:53;;;;;;;6.70;6.03;;;15.80;99.90;;;;;;4973227;28;20184;-76
2023/10/20 11:44:20;;;;;;;6.90;5.90;;;15.80;99.90;;;;;;4973679;28;20215;-76
2023/10/20 11:46:46;;;;;;;6.57;5.87;;;15.70;99.90;;;;;;4973899;28;20180;-75
2023/10/20 11:49:12;;;;;;;5.67;5.10;;;15.80;99.90;;;;;;4973565;28;20180;-76
2023/10/20 11:51:38;;;;;;;5.70;5.00;;;15.80;99.90;;;;;;4973318;28;20652;-75
2023/10/20 11:54:05;;;;;;;5.87;5.13;;;15.70;99.90;;;;;;4977595;28;20190;-76
2023/10/20 11:56:31;;;;;;;6.03;4.27;;;15.80;99.90;;;;;;4977959;28;20569;-76
2023/10/20 11:58:58;;;;;;;7.40;4.63;;;15.80;99.90;;;;;;4977232;28;20210;-76
2023/10/20 12:01:24;;;;;;;4.23;3.97;;;15.70;99.90;;;;;;4976426;28;20186;-75
2023/10/20 12:03:49;;;;;;;4.83;4.40;;;15.70;99.90;;;;;;4977186;28;20596;-76
2023/10/20 12:06:15;;;;;;;4.73;4.07;;;15.80;99.90;;;;;;4976162;28;20215;-76
2023/10/20 12:08:41;;;;;;;3.87;3.50;;;15.90;99.90;;;;;;4977005;28;20176;-78
2023/10/20 12:11:08;;;;;;;4.33;3.60;;;15.80;99.90;;;;;;4976931;28;20180;-76
2023/10/20 12:13:36;;;;;;;3.87;3.57;;;15.80;99.90;;;;;;4977494;28;20171;-75
2023/10/20 12:16:04;;;;;;;3.90;3.50;;;15.80;99.90;;;;;;4977091;28;20184;-76
2023/10/20 12:18:30;;;;;;;3.70;3.50;;;15.80;99.90;;;;;;4976166;28;20230;-76
2023/10/20 12:20:55;;;;;;;3.67;3.30;;;15.70;99.90;;;;;;4976624;28;20192;-76
2023/10/20 12:23:21;;;;;;;4.77;3.07;;;15.60;99.90;;;;;;4977098;28;20241;-76
2023/10/20 12:25:47;;;;;;;5.37;3.47;;;15.60;99.90;;;;;;4977051;28;20273;-77
2023/10/20 12:28:12;;;;;;;3.70;3.40;;;15.60;99.90;;;;;;4977067;28;20552;-77
2023/10/20 12:30:38;;;;;;;4.67;3.37;;;15.50;99.90;;;;;;4976988;28;20207;-76
2023/10/20 12:33:05;;;;;;;4.00;3.70;;;15.40;99.90;;;;;;4977274;28;20175;-78
2023/10/20 12:35:31;;;;;;;5.20;4.00;;;15.50;99.90;;;;;;4976064;28;20187;-77
2023/10/20 12:37:57;;;;;;;4.10;3.80;;;15.60;99.90;;;;;;4976020;28;20231;-76
2023/10/20 12:40:22;;;;;;;6.37;4.60;;;15.60;99.90;;;;;;4976844;28;20631;-77
2023/10/20 12:42:49;;;;;;;3.37;3.17;;;15.60;99.90;;;;;;4976900;28;20195;-77
2023/10/20 12:45:16;;;;;;;3.47;3.20;;;15.50;99.90;;;;;;4976395;28;20247;-77
2023/10/20 12:47:42;;;;;;;3.33;3.10;;;15.50;99.90;;;;;;4977108;28;20191;-76
2023/10/20 12:50:08;;;;;;;3.80;3.50;;;15.40;99.90;;;;;;4976432;28;20567;-78
2023/10/20 12:52:34;;;;;;;3.70;3.50;;;15.30;99.90;;;;;;4976654;28;20252;-78
2023/10/20 12:55:00;;;;;;;3.87;3.57;;;15.30;99.90;;;;;;4974478;28;20270;-77
2023/10/20 12:57:26;;;;;;;3.90;3.60;;;15.30;99.90;;;;;;4976419;28;20712;-78
2023/10/20 12:59:52;;;;;;;5.57;3.90;;;15.30;99.90;;;;;;4975733;28;20186;-77
2023/10/20 13:02:17;;;;;;;4.70;4.30;;;15.30;99.90;;;;;;4976230;28;20679;-77